Time;durP1;ratioP1;P1;durP2;ratioP2;P2;SDS_P1;SDS_P2;PMS_P1;PMS_P2;Temp;Humidity;BMP_temperature;BMP_pressure;BME280_temperature;BME280_humidity;BME280_pressure;Samples;Min_cycle;Max_cycle;Signal;HPM_P1;HPM_P2
2023/02/24 00:01:44;;;;;;;11.73;5.30;;;7.50;99.90;;;;;;5016753;28;20560;-78
2023/02/24 00:04:12;;;;;;;16.67;6.10;;;7.50;99.90;;;;;;5035538;28;20464;-78
2023/02/24 00:06:40;;;;;;;9.53;4.03;;;7.50;99.90;;;;;;5036633;28;20425;-77
2023/02/24 00:09:10;;;;;;;18.57;5.50;;;7.50;99.90;;;;;;5020329;28;20428;-78
2023/02/24 00:11:43;;;;;;;10.20;3.80;;;7.40;99.90;;;;;;5035643;28;20472;-78
2023/02/24 00:14:11;;;;;;;12.20;4.97;;;7.40;99.90;;;;;;5039687;28;20417;-78
2023/02/24 00:16:37;;;;;;;11.53;4.57;;;7.30;99.90;;;;;;5038903;28;20437;-79
2023/02/24 00:19:06;;;;;;;10.80;4.70;;;7.30;99.90;;;;;;5041395;28;20464;-79
2023/02/24 00:21:33;;;;;;;10.37;4.37;;;7.30;99.90;;;;;;5040150;28;20924;-79
2023/02/24 00:23:58;;;;;;;12.43;4.97;;;7.30;99.90;;;;;;5040512;28;20469;-78
2023/02/24 00:26:25;;;;;;;8.83;4.53;;;7.30;99.90;;;;;;5024231;28;20839;-79
2023/02/24 00:28:52;;;;;;;11.43;5.50;;;7.30;99.90;;;;;;5038408;28;20191;-79
2023/02/24 00:31:18;;;;;;;11.20;5.67;;;7.30;99.90;;;;;;5038374;28;20417;-79
2023/02/24 00:33:46;;;;;;;14.20;4.77;;;7.30;99.90;;;;;;5042174;28;20461;-78
2023/02/24 00:36:22;;;;;;;11.30;5.70;;;7.20;99.90;;;;;;5040308;28;20417;-79
2023/02/24 00:38:49;;;;;;;12.73;5.60;;;7.30;99.90;;;;;;5039804;28;20424;-78
2023/02/24 00:41:17;;;;;;;11.80;4.40;;;7.30;99.90;;;;;;5044195;28;20437;-78
2023/02/24 00:43:48;;;;;;;13.83;7.10;;;7.30;99.90;;;;;;5038963;28;21039;-78
2023/02/24 00:46:19;;;;;;;11.50;5.63;;;7.30;99.90;;;;;;5040329;28;20428;-79
2023/02/24 00:48:47;;;;;;;15.70;6.77;;;7.40;99.90;;;;;;5040863;28;20448;-79
2023/02/24 00:51:16;;;;;;;16.20;7.77;;;7.30;99.90;;;;;;5041325;28;20451;-78
2023/02/24 00:53:43;;;;;;;15.03;8.10;;;7.20;99.90;;;;;;5042318;28;20508;-78
2023/02/24 00:56:15;;;;;;;20.37;7.50;;;7.20;99.90;;;;;;5040986;28;20429;-78
2023/02/24 01:05:27;;;;;;;18.87;7.30;;;7.20;99.90;;;;;;5037838;28;20429;-79
2023/02/24 01:07:53;;;;;;;16.30;7.00;;;7.20;99.90;;;;;;5040136;28;20492;-79
2023/02/24 01:10:21;;;;;;;16.43;8.00;;;7.20;99.90;;;;;;5041146;28;20460;-79
2023/02/24 01:12:49;;;;;;;18.40;6.20;;;7.10;99.90;;;;;;5041405;28;20222;-79
2023/02/24 01:15:20;;;;;;;13.63;4.90;;;7.10;99.90;;;;;;5041916;28;20413;-79
2023/02/24 01:17:46;;;;;;;12.37;4.53;;;7.10;99.90;;;;;;5039597;28;20481;-79
2023/02/24 01:20:15;;;;;;;17.23;5.60;;;7.00;99.90;;;;;;5039945;28;20479;-79
2023/02/24 01:22:52;;;;;;;13.43;6.77;;;7.00;99.90;;;;;;5024163;28;20461;-79
2023/02/24 01:25:19;;;;;;;15.43;5.20;;;7.00;99.90;;;;;;5041500;28;20464;-78
2023/02/24 01:27:45;;;;;;;10.67;5.80;;;7.00;99.90;;;;;;5042052;28;20436;-79
2023/02/24 01:30:14;;;;;;;19.20;6.20;;;7.00;99.90;;;;;;5041909;28;20448;-78
2023/02/24 01:32:42;;;;;;;10.73;5.10;;;7.00;99.90;;;;;;5042341;28;20499;-79
2023/02/24 01:35:08;;;;;;;13.30;6.50;;;7.00;99.90;;;;;;5041816;28;20437;-79
2023/02/24 01:37:34;;;;;;;18.70;5.50;;;7.00;99.90;;;;;;5042457;28;20464;-79
2023/02/24 01:40:09;;;;;;;16.47;5.40;;;7.00;99.90;;;;;;5039543;28;20433;-79
2023/02/24 01:42:34;;;;;;;14.80;5.33;;;7.00;99.90;;;;;;5040921;28;20444;-78
2023/02/24 01:45:13;;;;;;;15.80;5.17;;;6.70;99.90;;;;;;5040863;28;20607;-79
2023/02/24 01:47:39;;;;;;;10.60;5.10;;;6.50;99.90;;;;;;5039710;28;20853;-79
2023/02/24 01:50:07;;;;;;;13.20;5.57;;;7.00;99.90;;;;;;5022561;28;20425;-79
2023/02/24 01:52:35;;;;;;;18.63;5.53;;;7.00;99.90;;;;;;5040770;28;20437;-78
2023/02/24 01:55:22;;;;;;;19.30;5.57;;;7.00;99.90;;;;;;5040912;28;20433;-79
2023/02/24 01:57:50;;;;;;;12.30;5.03;;;7.00;99.90;;;;;;5023539;28;20479;-78
2023/02/24 02:03:12;;;;;;;10.17;4.80;;;7.00;99.90;;;;;;5040196;28;20436;-78
2023/02/24 02:05:39;;;;;;;12.77;4.80;;;7.00;99.90;;;;;;5041755;28;20473;-77
2023/02/24 02:08:07;;;;;;;7.27;3.70;;;7.00;99.90;;;;;;5042073;28;20417;-79
2023/02/24 02:10:34;;;;;;;17.53;4.63;;;6.90;99.90;;;;;;5040697;28;20439;-79
2023/02/24 02:13:03;;;;;;;14.10;4.40;;;6.90;99.90;;;;;;5040235;28;20445;-78
2023/02/24 02:15:33;;;;;;;12.90;6.00;;;6.70;99.90;;;;;;5041253;28;20442;-79
2023/02/24 02:18:03;;;;;;;16.53;4.90;;;6.90;99.90;;;;;;5040645;28;20452;-79
2023/02/24 02:20:57;;;;;;;13.10;4.97;;;6.80;99.90;;;;;;5041313;28;20409;-79
2023/02/24 02:23:52;;;;;;;13.57;4.83;;;6.90;99.90;;;;;;5039324;28;20465;-79
2023/02/24 02:26:39;;;;;;;13.37;4.70;;;6.90;99.90;;;;;;5040620;28;20456;-77
2023/02/24 02:29:16;;;;;;;14.50;4.00;;;6.80;99.90;;;;;;5039328;28;20488;-79
2023/02/24 02:32:33;;;;;;;9.33;4.23;;;6.80;99.90;;;;;;5039305;28;20417;-78
2023/02/24 02:35:17;;;;;;;14.03;4.07;;;6.80;99.90;;;;;;5017562;28;20433;-77
2023/02/24 02:37:55;;;;;;;8.17;3.70;;;6.70;99.90;;;;;;5041146;28;20563;-78
2023/02/24 02:40:26;;;;;;;9.90;3.83;;;6.60;99.90;;;;;;5040912;28;20739;-79
2023/02/24 02:43:13;;;;;;;6.60;3.13;;;6.60;99.90;;;;;;5041450;28;20433;-79
2023/02/24 02:45:47;;;;;;;11.90;3.93;;;6.70;99.90;;;;;;5040388;28;20436;-78
2023/02/24 02:48:23;;;;;;;9.77;4.30;;;6.40;99.90;;;;;;5040942;28;20443;-78
2023/02/24 02:50:56;;;;;;;12.77;3.07;;;6.50;99.90;;;;;;5039985;28;20423;-79
2023/02/24 02:53:37;;;;;;;14.07;3.80;;;6.40;99.90;;;;;;5040488;28;20491;-78
2023/02/24 02:56:18;;;;;;;9.73;3.43;;;6.50;99.90;;;;;;5040798;28;20511;-78
2023/02/24 02:58:51;;;;;;;6.63;2.80;;;6.60;99.90;;;;;;5041262;28;20417;-77
2023/02/24 03:01:19;;;;;;;11.77;4.23;;;6.50;99.90;;;;;;5039309;28;20425;-78
2023/02/24 03:03:50;;;;;;;10.43;3.40;;;6.50;99.90;;;;;;5016826;28;21056;-77
2023/02/24 03:06:25;;;;;;;7.53;3.60;;;6.40;99.90;;;;;;5035109;28;20790;-78
2023/02/24 03:09:14;;;;;;;12.27;2.87;;;6.20;99.90;;;;;;5034790;28;20421;-78
2023/02/24 03:11:52;;;;;;;8.13;4.23;;;6.30;99.90;;;;;;5033346;28;20433;-78
2023/02/24 03:14:25;;;;;;;9.40;2.67;;;6.30;99.90;;;;;;5016637;28;20457;-78
2023/02/24 03:16:52;;;;;;;8.40;3.10;;;6.30;99.90;;;;;;5033742;28;20428;-78
2023/02/24 03:19:26;;;;;;;9.73;3.27;;;6.30;99.90;;;;;;5033699;28;20421;-77
2023/02/24 03:22:05;;;;;;;14.87;3.87;;;6.30;99.90;;;;;;5034476;28;20421;-78
2023/02/24 03:24:31;;;;;;;8.30;2.37;;;6.30;99.90;;;;;;5017329;28;20469;-78
2023/02/24 03:27:27;;;;;;;13.33;4.40;;;6.30;99.90;;;;;;5034950;28;20405;-78
2023/02/24 03:29:57;;;;;;;12.63;4.83;;;6.30;99.90;;;;;;5035327;28;20425;-78
2023/02/24 03:32:42;;;;;;;12.87;4.10;;;6.40;99.90;;;;;;5036640;28;20520;-78
2023/02/24 03:35:20;;;;;;;12.37;3.10;;;6.40;99.90;;;;;;5036108;28;20861;-78
2023/02/24 03:37:46;;;;;;;8.83;3.07;;;6.30;99.90;;;;;;5034596;28;20448;-78
2023/02/24 03:40:16;;;;;;;12.73;2.97;;;6.30;99.90;;;;;;5036649;28;20512;-78
2023/02/24 03:42:46;;;;;;;11.30;3.27;;;6.30;99.90;;;;;;5040821;28;20433;-77
2023/02/24 03:45:12;;;;;;;8.97;4.90;;;6.30;99.90;;;;;;5039706;28;20518;-78
2023/02/24 03:47:39;;;;;;;16.73;4.77;;;6.30;99.90;;;;;;5040054;28;20413;-78
2023/02/24 03:50:14;;;;;;;11.07;3.43;;;6.30;99.90;;;;;;5040042;28;20413;-78
2023/02/24 03:53:21;;;;;;;9.60;3.97;;;6.40;99.90;;;;;;5038970;28;20432;-78
2023/02/24 03:56:12;;;;;;;12.97;3.80;;;6.40;99.90;;;;;;5022185;28;20444;-79
2023/02/24 03:59:00;;;;;;;11.40;4.10;;;6.10;99.90;;;;;;5038889;28;20949;-78
2023/02/24 04:02:01;;;;;;;15.40;5.23;;;6.20;99.90;;;;;;5039167;28;20536;-79
2023/02/24 04:04:43;;;;;;;8.17;4.13;;;6.30;99.90;;;;;;5034779;28;20472;-78
2023/02/24 04:07:30;;;;;;;9.97;3.97;;;6.30;99.90;;;;;;5039425;28;20421;-78
2023/02/24 04:10:17;;;;;;;8.40;3.93;;;6.20;99.90;;;;;;5034845;28;20417;-77
2023/02/24 04:12:48;;;;;;;8.53;3.90;;;6.20;99.90;;;;;;5032414;28;20856;-77
2023/02/24 04:15:28;;;;;;;10.20;4.20;;;6.10;99.90;;;;;;5031653;28;20413;-78
2023/02/24 04:18:06;;;;;;;9.03;3.83;;;6.10;99.90;;;;;;5036259;28;20832;-79
2023/02/24 04:20:34;;;;;;;10.67;3.83;;;6.00;99.90;;;;;;5039294;28;20503;-78
2023/02/24 04:23:09;;;;;;;11.47;4.33;;;6.00;99.90;;;;;;5039341;28;20429;-79
2023/02/24 04:25:35;;;;;;;9.20;3.53;;;6.10;99.90;;;;;;5038198;28;21130;-79
2023/02/24 04:28:03;;;;;;;9.73;4.27;;;6.30;99.90;;;;;;5021138;28;20496;-78
2023/02/24 04:30:33;;;;;;;18.43;6.60;;;6.10;99.90;;;;;;5037508;28;20766;-79
2023/02/24 04:32:59;;;;;;;9.53;4.70;;;6.10;99.90;;;;;;5039367;28;20429;-78
2023/02/24 04:35:25;;;;;;;8.80;3.70;;;6.00;99.90;;;;;;5038182;28;20417;-80
2023/02/24 04:37:51;;;;;;;11.00;4.47;;;5.90;99.90;;;;;;5034832;28;20182;-80
2023/02/24 04:40:20;;;;;;;8.50;4.03;;;6.10;99.90;;;;;;5017706;28;20967;-79
2023/02/24 04:42:48;;;;;;;9.93;4.27;;;6.00;99.90;;;;;;5034038;28;20535;-79
2023/02/24 04:45:15;;;;;;;8.63;4.40;;;5.90;99.90;;;;;;5034134;28;20460;-77
2023/02/24 04:47:44;;;;;;;10.03;3.80;;;6.00;99.90;;;;;;5035103;28;20445;-79
2023/02/24 04:50:21;;;;;;;9.13;4.23;;;6.00;99.90;;;;;;5035199;28;20788;-80
2023/02/24 04:52:50;;;;;;;11.07;5.27;;;6.10;99.90;;;;;;5035465;28;20440;-79
2023/02/24 04:55:16;;;;;;;9.63;4.43;;;5.90;99.90;;;;;;5017305;28;20467;-76
2023/02/24 04:57:46;;;;;;;13.20;4.80;;;5.80;99.90;;;;;;5033656;28;20805;-79
2023/02/24 05:00:21;;;;;;;12.10;4.80;;;5.90;99.90;;;;;;5034178;28;20424;-77
2023/02/24 05:02:52;;;;;;;10.93;3.50;;;5.90;99.90;;;;;;5034376;28;20520;-78
2023/02/24 05:05:24;;;;;;;18.10;5.00;;;5.80;99.90;;;;;;5033609;28;20473;-80
2023/02/24 05:07:51;;;;;;;10.80;4.30;;;6.10;99.90;;;;;;5034058;28;20413;-78
2023/02/24 05:10:18;;;;;;;9.03;4.03;;;6.00;99.90;;;;;;5033922;28;20555;-78
2023/02/24 05:12:43;;;;;;;11.87;4.93;;;5.80;99.90;;;;;;5033636;28;20508;-78
2023/02/24 05:15:11;;;;;;;15.53;5.60;;;5.90;99.90;;;;;;5017203;28;20480;-80
2023/02/24 05:17:37;;;;;;;14.93;4.90;;;5.80;99.90;;;;;;5033056;28;20182;-77
2023/02/24 05:22:52;;;;;;;9.70;5.00;;;5.90;99.90;;;;;;5032904;28;20430;-80
2023/02/24 05:25:19;;;;;;;13.67;4.83;;;5.80;99.90;;;;;;5016824;28;20564;-80
2023/02/24 05:27:46;;;;;;;15.20;5.50;;;5.90;99.90;;;;;;5033545;28;20421;-78
2023/02/24 05:30:13;;;;;;;11.70;5.53;;;5.90;99.90;;;;;;5034830;28;20409;-79
2023/02/24 05:32:39;;;;;;;10.17;4.53;;;6.00;99.90;;;;;;5034076;28;20445;-79
2023/02/24 05:35:05;;;;;;;9.90;5.03;;;5.80;99.90;;;;;;5033385;28;21088;-80
2023/02/24 05:37:32;;;;;;;11.33;4.60;;;5.80;99.90;;;;;;5033856;28;20584;-80
2023/02/24 05:40:02;;;;;;;10.60;4.67;;;5.70;99.90;;;;;;5042356;28;20416;-80
2023/02/24 05:42:33;;;;;;;10.87;4.00;;;5.80;99.90;;;;;;5053994;28;20546;-77
2023/02/24 05:45:00;;;;;;;14.67;3.93;;;5.80;99.90;;;;;;5051563;28;20482;-80
2023/02/24 05:47:26;;;;;;;8.40;4.03;;;5.90;99.90;;;;;;5051646;28;20427;-77
2023/02/24 05:49:55;;;;;;;13.43;4.40;;;5.90;99.90;;;;;;5052026;28;20419;-76
2023/02/24 05:52:21;;;;;;;8.83;3.73;;;5.80;99.90;;;;;;5032288;28;21017;-77
2023/02/24 05:54:48;;;;;;;8.63;3.00;;;5.90;99.90;;;;;;5029656;28;20428;-77
2023/02/24 05:57:23;;;;;;;9.20;3.90;;;5.90;99.90;;;;;;5030792;28;20938;-77
2023/02/24 05:59:50;;;;;;;13.23;4.00;;;5.80;99.90;;;;;;5030217;28;20793;-77
2023/02/24 06:02:26;;;;;;;6.47;2.90;;;6.00;99.90;;;;;;5031212;28;20429;-78
2023/02/24 06:04:55;;;;;;;8.67;2.73;;;6.00;99.90;;;;;;5013365;28;20463;-77
2023/02/24 06:07:33;;;;;;;9.03;2.37;;;5.80;99.90;;;;;;4995219;28;20426;-79
2023/02/24 06:09:59;;;;;;;10.80;2.67;;;6.00;99.90;;;;;;5011473;28;20817;-78
2023/02/24 06:12:29;;;;;;;7.77;2.70;;;5.80;99.90;;;;;;4995204;28;20512;-78
2023/02/24 06:14:57;;;;;;;14.20;2.87;;;6.00;99.90;;;;;;5013536;28;20422;-78
2023/02/24 06:17:23;;;;;;;8.90;2.60;;;5.80;99.90;;;;;;5012997;28;20414;-78
2023/02/24 06:19:50;;;;;;;7.10;2.80;;;5.90;99.90;;;;;;5012974;28;20476;-76
2023/02/24 06:22:19;;;;;;;8.83;2.57;;;5.90;99.90;;;;;;5011811;28;20442;-79
2023/02/24 06:24:48;;;;;;;5.63;2.73;;;5.80;99.90;;;;;;5013713;28;20515;-78
2023/02/24 06:27:17;;;;;;;6.80;2.60;;;6.00;99.90;;;;;;5029431;28;20453;-78
2023/02/24 06:29:50;;;;;;;3.93;2.57;;;6.00;99.90;;;;;;5032702;28;20443;-78
2023/02/24 06:32:22;;;;;;;9.07;3.20;;;6.00;99.90;;;;;;5017372;28;20440;-79
2023/02/24 06:34:48;;;;;;;8.23;3.10;;;5.80;99.90;;;;;;5033421;28;20442;-79
2023/02/24 06:37:15;;;;;;;5.03;3.33;;;6.00;99.90;;;;;;5031563;28;20421;-79
2023/02/24 06:39:41;;;;;;;11.97;3.13;;;5.90;99.90;;;;;;5025878;28;20454;-78
2023/02/24 06:42:09;;;;;;;10.60;2.87;;;5.90;99.90;;;;;;5030298;28;20445;-77
2023/02/24 06:44:37;;;;;;;7.47;3.87;;;6.10;99.90;;;;;;5031634;28;20464;-80
2023/02/24 06:47:05;;;;;;;8.60;3.67;;;5.80;99.90;;;;;;5032565;28;20463;-80
2023/02/24 06:49:31;;;;;;;7.60;3.10;;;5.90;99.90;;;;;;5030805;28;20465;-77
2023/02/24 06:51:58;;;;;;;10.63;3.47;;;5.70;99.90;;;;;;5031975;28;20507;-79
2023/02/24 06:54:29;;;;;;;8.13;3.73;;;6.00;99.90;;;;;;5031579;28;20789;-79
2023/02/24 06:56:57;;;;;;;5.67;3.13;;;6.10;99.90;;;;;;5031293;28;20413;-79
2023/02/24 06:59:27;;;;;;;8.40;4.07;;;5.70;99.90;;;;;;5031613;28;20418;-79
2023/02/24 07:01:57;;;;;;;8.57;3.67;;;5.90;99.90;;;;;;5029435;28;20475;-78
2023/02/24 07:04:23;;;;;;;16.77;4.70;;;6.00;99.90;;;;;;5000239;28;20472;-77
2023/02/24 07:06:55;;;;;;;10.47;4.53;;;6.10;99.90;;;;;;5011305;28;20413;-79
2023/02/24 07:09:25;;;;;;;9.10;4.27;;;5.90;99.90;;;;;;5012741;28;20496;-78
2023/02/24 07:11:54;;;;;;;13.13;4.90;;;5.90;99.90;;;;;;5022022;28;20468;-79
2023/02/24 07:14:25;;;;;;;8.60;4.17;;;5.80;99.90;;;;;;5032370;28;20442;-78
2023/02/24 07:16:52;;;;;;;9.00;4.37;;;6.00;99.90;;;;;;5033569;28;20424;-78
2023/02/24 07:19:22;;;;;;;9.63;5.20;;;5.80;99.90;;;;;;5036331;28;21907;-78
2023/02/24 07:21:51;;;;;;;10.20;4.10;;;5.90;99.90;;;;;;5035105;28;20413;-77
2023/02/24 07:24:23;;;;;;;19.20;5.10;;;5.80;99.90;;;;;;5035421;28;21114;-79
2023/02/24 07:26:57;;;;;;;11.00;4.93;;;5.80;99.90;;;;;;5027572;28;20495;-77
2023/02/24 07:29:28;;;;;;;9.13;3.97;;;5.80;99.90;;;;;;5032288;28;20425;-77
2023/02/24 07:31:56;;;;;;;7.27;5.27;;;6.00;99.90;;;;;;5035712;28;20432;-79
2023/02/24 07:34:24;;;;;;;11.03;4.63;;;5.70;99.90;;;;;;5038831;28;20417;-78
2023/02/24 07:36:54;;;;;;;8.20;6.40;;;5.80;99.90;;;;;;5034175;28;20428;-77
2023/02/24 07:39:21;;;;;;;10.33;4.40;;;5.80;99.90;;;;;;5015660;28;20414;-76
2023/02/24 07:41:53;;;;;;;9.70;3.63;;;6.00;99.90;;;;;;5023315;28;20940;-78
2023/02/24 07:44:21;;;;;;;10.10;3.87;;;5.90;99.90;;;;;;5018140;28;20471;-75
2023/02/24 07:46:50;;;;;;;9.70;3.40;;;6.00;99.90;;;;;;5035105;28;20436;-78
2023/02/24 07:49:19;;;;;;;8.17;4.07;;;6.00;99.90;;;;;;5035373;28;20424;-78
2023/02/24 07:51:51;;;;;;;10.70;3.63;;;5.90;99.90;;;;;;5035920;28;20417;-79
2023/02/24 07:54:19;;;;;;;7.57;3.37;;;6.10;99.90;;;;;;5041844;28;20436;-77
2023/02/24 07:56:55;;;;;;;6.80;2.97;;;5.90;99.90;;;;;;5036942;28;20960;-79
2023/02/24 07:59:25;;;;;;;11.10;3.50;;;6.00;99.90;;;;;;5017081;28;20417;-78
2023/02/24 08:01:54;;;;;;;9.93;3.37;;;5.90;99.90;;;;;;5023195;28;20810;-78
2023/02/24 08:04:22;;;;;;;7.70;3.23;;;5.80;99.90;;;;;;5027624;28;20813;-77
2023/02/24 08:06:55;;;;;;;8.77;2.90;;;5.90;99.90;;;;;;5029703;28;20472;-79
2023/02/24 08:10:08;;;;;;;8.67;3.50;;;6.00;99.90;;;;;;5021676;28;20468;-80
2023/02/24 08:12:16;;;;;;;8.90;3.20;;;5.90;99.90;;;;;;5028567;28;20861;-78
2023/02/24 08:14:49;;;;;;;8.07;3.40;;;5.90;99.90;;;;;;5021430;28;20429;-78
2023/02/24 08:17:20;;;;;;;12.43;3.40;;;6.00;99.90;;;;;;5015918;28;20437;-79
2023/02/24 08:22:36;;;;;;;7.17;4.00;;;6.10;99.90;;;;;;5014508;28;21016;-80
2023/02/24 08:25:05;;;;;;;7.43;3.20;;;5.80;99.90;;;;;;4996099;28;20469;-79
2023/02/24 08:27:37;;;;;;;10.40;2.80;;;6.00;99.90;;;;;;5014100;28;20805;-80
2023/02/24 08:30:06;;;;;;;8.20;3.80;;;5.90;99.90;;;;;;5015176;28;20425;-78
2023/02/24 08:32:43;;;;;;;7.30;2.97;;;5.90;99.90;;;;;;5014250;28;20430;-77
2023/02/24 08:35:17;;;;;;;6.07;2.80;;;5.80;99.90;;;;;;5011861;28;20430;-79
2023/02/24 08:37:48;;;;;;;10.70;3.00;;;5.90;99.90;;;;;;5014865;28;20428;-78
2023/02/24 08:43:14;;;;;;;7.30;3.07;;;6.00;99.90;;;;;;5053862;28;20916;-78
2023/02/24 08:45:43;;;;;;;11.53;3.30;;;5.90;99.90;;;;;;5055574;28;20511;-80
2023/02/24 08:48:25;;;;;;;5.70;3.20;;;6.00;99.90;;;;;;5053314;28;20894;-79
2023/02/24 08:50:52;;;;;;;6.97;3.13;;;6.20;99.90;;;;;;5046848;28;20421;-79
2023/02/24 08:53:18;;;;;;;7.73;3.60;;;6.00;99.90;;;;;;5032216;28;20433;-79
2023/02/24 08:55:45;;;;;;;8.37;3.70;;;6.10;99.90;;;;;;5031639;28;20425;-79
2023/02/24 08:58:17;;;;;;;6.03;3.73;;;5.60;99.90;;;;;;5031410;28;20187;-78
2023/02/24 09:00:49;;;;;;;11.83;4.80;;;6.10;99.90;;;;;;5031230;28;20440;-78
2023/02/24 09:03:26;;;;;;;15.00;4.67;;;6.10;99.90;;;;;;5029819;28;20433;-77
2023/02/24 09:06:04;;;;;;;7.80;4.43;;;6.20;99.90;;;;;;5031328;28;20903;-79
2023/02/24 09:08:32;;;;;;;12.23;4.63;;;6.20;99.90;;;;;;5033248;28;20416;-79
2023/02/24 09:11:06;;;;;;;13.67;5.27;;;6.00;99.90;;;;;;5034533;28;20781;-80
2023/02/24 09:13:53;;;;;;;12.73;4.83;;;6.00;99.90;;;;;;5016753;28;20444;-79
2023/02/24 09:16:22;;;;;;;8.47;4.33;;;6.10;99.90;;;;;;5034482;28;20417;-80
2023/02/24 09:19:13;;;;;;;8.10;4.00;;;6.20;99.90;;;;;;5032829;28;20831;-79
2023/02/24 09:24:13;;;;;;;8.70;4.20;;;6.00;99.90;;;;;;5034336;28;20457;-79
2023/02/24 09:26:44;;;;;;;8.37;3.93;;;6.10;99.90;;;;;;5033210;28;20903;-78
2023/02/24 09:32:05;;;;;;;10.37;4.20;;;6.00;99.90;;;;;;5034593;28;20410;-79
2023/02/24 09:34:33;;;;;;;8.90;3.97;;;6.10;99.90;;;;;;5016366;28;20446;-80
2023/02/24 09:37:02;;;;;;;8.13;4.27;;;6.00;99.90;;;;;;5035872;28;20797;-77
2023/02/24 09:44:55;;;;;;;8.73;4.10;;;6.10;99.90;;;;;;5052535;28;20602;-80
2023/02/24 09:47:39;;;;;;;6.20;3.50;;;6.00;99.90;;;;;;5052605;28;20510;-80
2023/02/24 09:50:19;;;;;;;14.20;4.33;;;6.00;99.90;;;;;;5053524;28;20416;-78
2023/02/24 09:52:49;;;;;;;8.97;4.07;;;6.10;99.90;;;;;;5035945;28;20818;-78
2023/02/24 09:55:34;;;;;;;10.07;4.10;;;6.00;99.90;;;;;;5053236;28;20503;-79
2023/02/24 10:01:21;;;;;;;6.70;4.10;;;6.30;99.90;;;;;;5052444;28;20442;-80
2023/02/24 10:04:03;;;;;;;8.23;3.23;;;6.20;99.90;;;;;;5051782;28;20551;-80
2023/02/24 10:06:34;;;;;;;9.50;3.53;;;6.10;99.90;;;;;;5036270;28;20424;-78
2023/02/24 10:09:41;;;;;;;7.73;3.33;;;6.30;99.90;;;;;;5035352;28;20413;-77
2023/02/24 10:12:15;;;;;;;11.30;3.33;;;6.30;99.90;;;;;;5050196;28;20448;-77
2023/02/24 10:15:17;;;;;;;8.20;3.30;;;6.20;99.90;;;;;;5049851;28;20509;-78
2023/02/24 10:17:54;;;;;;;6.57;3.10;;;6.30;99.90;;;;;;5050275;28;20420;-78
2023/02/24 10:20:44;;;;;;;6.30;3.50;;;6.10;99.90;;;;;;5050304;28;20506;-77
2023/02/24 10:23:31;;;;;;;10.00;3.50;;;6.30;99.90;;;;;;5048049;28;20440;-78
2023/02/24 10:26:30;;;;;;;6.40;3.37;;;6.10;99.90;;;;;;5032474;28;20579;-78
2023/02/24 10:29:21;;;;;;;8.50;3.67;;;6.00;99.90;;;;;;5049863;28;20420;-78
2023/02/24 10:31:56;;;;;;;6.43;3.90;;;6.20;99.90;;;;;;5048607;28;20416;-77
2023/02/24 10:34:33;;;;;;;6.27;3.40;;;6.20;99.90;;;;;;5049681;28;20424;-78
2023/02/24 10:37:12;;;;;;;6.50;3.13;;;6.10;99.90;;;;;;5045430;28;20506;-78
2023/02/24 10:39:42;;;;;;;11.33;2.87;;;6.20;99.90;;;;;;5029612;28;20405;-78
2023/02/24 10:42:14;;;;;;;12.03;3.70;;;6.30;99.90;;;;;;5030093;28;20433;-77
2023/02/24 10:44:52;;;;;;;8.10;3.23;;;6.00;99.90;;;;;;5028342;28;20473;-78
2023/02/24 10:47:18;;;;;;;5.17;2.67;;;6.30;99.90;;;;;;5028272;28;20427;-78
2023/02/24 10:49:58;;;;;;;9.87;3.27;;;6.20;99.90;;;;;;5028235;28;20451;-78
2023/02/24 10:52:36;;;;;;;3.13;2.43;;;6.10;99.90;;;;;;5029740;28;20475;-79
2023/02/24 10:58:27;;;;;;;5.83;2.37;;;6.20;99.90;;;;;;5029587;28;20421;-78
2023/02/24 11:01:12;;;;;;;5.93;2.70;;;6.10;99.90;;;;;;5029295;28;20424;-78
2023/02/24 11:04:00;;;;;;;8.90;3.10;;;5.90;99.90;;;;;;5027725;28;20470;-78
2023/02/24 11:17:58;;;;;;;8.20;2.50;;;6.20;99.90;;;;;;5029104;28;20417;-78
2023/02/24 11:20:42;;;;;;;7.20;3.30;;;5.80;99.90;;;;;;5011492;28;20484;-78
2023/02/24 11:23:18;;;;;;;7.90;2.90;;;6.00;99.90;;;;;;5028900;28;20494;-77
2023/02/24 11:25:52;;;;;;;8.53;3.10;;;5.90;99.90;;;;;;5029416;28;20424;-78
2023/02/24 11:28:45;;;;;;;8.87;3.60;;;5.80;99.90;;;;;;5028834;28;20926;-77
2023/02/24 11:31:20;;;;;;;7.90;3.17;;;5.90;99.90;;;;;;5020626;28;20424;-77
2023/02/24 11:33:59;;;;;;;13.00;3.37;;;5.80;99.90;;;;;;5029006;28;20445;-78
2023/02/24 11:36:38;;;;;;;12.73;4.00;;;5.80;99.90;;;;;;5029288;28;20532;-78
2023/02/24 11:39:29;;;;;;;10.30;4.40;;;5.90;99.90;;;;;;5024591;28;20423;-78
2023/02/24 11:41:59;;;;;;;7.23;3.43;;;6.10;99.90;;;;;;5008219;28;20420;-78
2023/02/24 11:44:57;;;;;;;8.20;3.60;;;5.90;99.90;;;;;;5009347;28;20457;-77
2023/02/24 11:47:40;;;;;;;10.80;4.10;;;5.90;99.90;;;;;;5024485;28;20410;-77
2023/02/24 11:50:24;;;;;;;8.30;5.50;;;5.80;99.90;;;;;;5009087;28;20432;-78
2023/02/24 11:52:51;;;;;;;6.97;4.33;;;5.80;99.90;;;;;;5007953;28;21141;-78
2023/02/24 11:55:37;;;;;;;10.80;4.80;;;5.80;99.90;;;;;;5008104;28;20414;-78
2023/02/24 11:58:19;;;;;;;9.07;4.40;;;5.70;99.90;;;;;;5024302;28;20417;-77
2023/02/24 12:00:56;;;;;;;7.27;4.40;;;5.70;99.90;;;;;;5009168;28;20437;-78
2023/02/24 12:03:52;;;;;;;5.67;3.60;;;5.80;99.90;;;;;;5010961;28;20524;-78
2023/02/24 12:06:35;;;;;;;8.80;4.43;;;5.70;99.90;;;;;;5014371;28;20813;-78
2023/02/24 12:09:18;;;;;;;10.73;4.70;;;5.70;99.90;;;;;;5012462;28;20418;-78
2023/02/24 12:12:02;;;;;;;7.17;5.03;;;5.70;99.90;;;;;;5012077;28;20492;-78
2023/02/24 12:14:31;;;;;;;11.27;5.00;;;5.70;99.90;;;;;;5013603;28;20417;-78
2023/02/24 12:17:20;;;;;;;10.93;5.10;;;5.60;99.90;;;;;;5011971;28;20456;-78
2023/02/24 12:20:03;;;;;;;12.53;6.60;;;5.70;99.90;;;;;;5013886;28;20752;-78
2023/02/24 12:22:43;;;;;;;13.93;5.53;;;5.70;99.90;;;;;;5028971;28;20437;-78
2023/02/24 12:25:13;;;;;;;8.20;5.33;;;5.50;99.90;;;;;;5028610;28;20844;-78
2023/02/24 12:27:48;;;;;;;9.33;5.50;;;5.70;99.90;;;;;;5011907;28;20914;-78
2023/02/24 12:30:47;;;;;;;13.80;7.00;;;5.50;99.90;;;;;;5011992;28;20429;-78
2023/02/24 12:33:25;;;;;;;11.07;6.60;;;5.50;99.90;;;;;;5011302;28;20434;-78
2023/02/24 12:36:20;;;;;;;8.20;7.03;;;5.80;99.90;;;;;;5011268;28;20500;-78
2023/02/24 12:38:45;;;;;;;7.70;6.40;;;5.40;99.90;;;;;;5011847;28;20402;-78
2023/02/24 12:41:36;;;;;;;9.10;5.63;;;5.50;99.90;;;;;;5011433;28;20488;-78
2023/02/24 12:44:23;;;;;;;6.53;5.90;;;5.50;99.90;;;;;;5011615;28;20242;-77
2023/02/24 12:47:13;;;;;;;11.60;7.10;;;5.50;99.90;;;;;;5014315;28;20418;-78
2023/02/24 12:50:23;;;;;;;7.27;6.23;;;5.50;99.90;;;;;;5011683;28;20433;-77
2023/02/24 12:53:07;;;;;;;8.67;6.27;;;5.50;99.90;;;;;;5009618;28;20441;-78
2023/02/24 12:55:46;;;;;;;10.40;5.63;;;5.40;99.90;;;;;;5010904;28;20441;-77
2023/02/24 12:58:18;;;;;;;8.97;5.60;;;5.60;99.90;;;;;;5011903;28;20425;-78
2023/02/24 13:00:53;;;;;;;10.70;6.40;;;5.70;99.90;;;;;;5011094;28;20454;-78
2023/02/24 13:03:31;;;;;;;11.33;5.67;;;5.40;99.90;;;;;;5010430;28;20433;-78
2023/02/24 13:06:24;;;;;;;12.93;6.40;;;5.60;99.90;;;;;;5026869;28;20512;-78
2023/02/24 13:09:11;;;;;;;10.60;6.70;;;5.80;99.90;;;;;;5010227;28;20422;-78
2023/02/24 13:12:02;;;;;;;9.70;5.37;;;5.60;99.90;;;;;;5010470;28;20997;-77
2023/02/24 13:14:37;;;;;;;6.70;5.20;;;5.60;99.90;;;;;;5011316;28;20409;-78
2023/02/24 13:17:11;;;;;;;13.93;5.50;;;5.60;99.90;;;;;;5010034;28;20445;-77
2023/02/24 13:19:39;;;;;;;8.63;5.73;;;5.60;99.90;;;;;;5026352;28;20827;-77
2023/02/24 13:22:10;;;;;;;6.80;5.30;;;5.60;99.90;;;;;;5009900;28;20429;-78
2023/02/24 13:24:39;;;;;;;6.47;4.80;;;5.60;99.90;;;;;;5009656;28;20520;-77
2023/02/24 13:27:22;;;;;;;8.07;5.77;;;5.50;99.90;;;;;;5010835;28;20421;-78
2023/02/24 13:29:52;;;;;;;8.30;5.50;;;5.50;99.90;;;;;;4993535;28;20437;-77
2023/02/24 13:32:34;;;;;;;7.77;5.00;;;5.70;99.90;;;;;;5009874;28;20517;-78
2023/02/24 13:35:25;;;;;;;6.90;4.97;;;5.50;99.90;;;;;;5026112;28;20529;-78
2023/02/24 13:37:52;;;;;;;7.30;4.93;;;5.50;99.90;;;;;;5010663;28;20426;-78
2023/02/24 13:40:18;;;;;;;9.80;6.00;;;5.50;99.90;;;;;;5009544;28;20465;-77
2023/02/24 13:43:19;;;;;;;8.20;5.60;;;5.50;99.90;;;;;;5026095;28;20922;-78
2023/02/24 13:45:55;;;;;;;7.47;5.40;;;5.50;99.90;;;;;;5011584;28;20214;-78
2023/02/24 13:48:27;;;;;;;7.40;5.23;;;5.60;99.90;;;;;;5010145;28;20418;-77
2023/02/24 13:51:37;;;;;;;11.13;6.07;;;5.60;99.90;;;;;;5010731;28;20580;-77
2023/02/24 13:54:22;;;;;;;11.77;6.20;;;5.40;99.90;;;;;;5008360;28;20437;-77
2023/02/24 13:57:20;;;;;;;11.77;6.70;;;5.40;99.90;;;;;;5010357;28;20419;-77
2023/02/24 13:59:57;;;;;;;10.00;6.20;;;5.50;99.90;;;;;;5010807;28;20422;-78
2023/02/24 14:02:28;;;;;;;9.90;7.33;;;5.50;99.90;;;;;;5009284;28;20449;-78
2023/02/24 14:04:56;;;;;;;8.00;7.20;;;5.50;99.90;;;;;;5008989;28;20465;-78
2023/02/24 14:07:28;;;;;;;11.83;7.67;;;5.40;99.90;;;;;;5009040;28;20446;-78
2023/02/24 14:10:03;;;;;;;11.50;8.53;;;5.60;99.90;;;;;;5026261;28;20454;-78
2023/02/24 14:12:33;;;;;;;11.10;9.03;;;5.30;99.90;;;;;;5029789;28;20448;-78
2023/02/24 14:15:00;;;;;;;11.57;9.20;;;5.50;99.90;;;;;;5028176;28;20790;-77
2023/02/24 14:17:36;;;;;;;14.20;8.93;;;5.60;99.90;;;;;;5029568;28;20406;-78